Flight Track Log - Related Links

Times and Time Zones

All times are in EDT time to prevent confusion due to time zone crossing. See the THY780 flight status page for this flight to view local times or setup timezone preferences in your user account.

Time Position Orientation Groundspeed Altitude Reporting Facility
EDT Latitude Longitude Course Direction KTS MPH feet Rate Location/Type
Sun 02:47:22 PM 41.0940 28.8980 83° East 273 314 5,600  Level FlightAware ADS-B
Sun 02:47:37 PM 41.0970 28.9300 83° East 274 315 6,600 2,933 Climbing FlightAware ADS-B
Sun 02:48:07 PM 41.1040 28.9780 79° East 284 327 7,800 2,600 Climbing FlightAware ADS-B
Sun 02:48:37 PM 41.1110 29.0320 80° East 290 334 9,200 2,657 Climbing FlightAware ADS-B
Sun 02:49:17 PM 41.1210 29.1040 80° East 301 346 10,900 1,886 Climbing FlightAware ADS-B
Sun 02:49:47 PM 41.1160 29.1600 97° East 330 380 11,400 1,457 Climbing FlightAware ADS-B
Sun 02:50:27 PM 41.0790 29.2170 131° Southeast 339 390 12,600 2,025 Climbing FlightAware ADS-B
Sun 02:51:07 PM 41.0300 29.2890 132° Southeast 365 420 14,100 2,250 Climbing FlightAware ADS-B
Sun 02:51:47 PM 40.9850 29.3590 130° Southeast 372 428 15,600 2,000 Climbing FlightAware ADS-B
Sun 02:52:22 PM 40.9450 29.4200 131° Southeast 378 435 16,600 1,950 Climbing FlightAware ADS-B
Sun 02:53:07 PM 40.8930 29.5000 131° Southeast 377 434 18,200 2,100 Climbing FlightAware ADS-B
Sun 02:53:42 PM 40.8460 29.5570 137° Southeast 393 452 19,400 1,886 Climbing FlightAware ADS-B
Sun 02:54:17 PM 40.7870 29.5930 155° Southeast 395 455 20,400 1,553 Climbing FlightAware ADS-B
Sun 02:55:07 PM 40.7040 29.6470 154° Southeast 402 463 21,600 1,333 Climbing FlightAware ADS-B
Sun 02:55:47 PM 40.6470 29.7020 144° Southeast 409 471 22,400 975 Climbing FlightAware ADS-B
Sun 02:56:27 PM 40.5910 29.7600 142° Southeast 411 473 22,900 635 Climbing FlightAware ADS-B
Sun 02:57:12 PM 40.5180 29.8330 143° Southeast 409 471 23,300 1,067 Climbing FlightAware ADS-B
Sun 02:57:57 PM 40.4480 29.9040 142° Southeast 413 475 24,500 1,482 Climbing FlightAware ADS-B
Sun 02:58:37 PM 40.4010 29.9810 129° Southeast 416 479 25,400 1,341 Climbing FlightAware ADS-B
Sun 02:59:22 PM 40.3860 30.0920 100° East 424 488 26,400 1,200 Climbing FlightAware ADS-B
Sun 03:00:02 PM 40.3750 30.1970 98° East 434 499 27,100 1,125 Climbing FlightAware ADS-B
Sun 03:00:42 PM 40.3640 30.3010 98° East 437 503 27,900 1,129 Climbing FlightAware ADS-B
Sun 03:01:27 PM 40.3510 30.4230 98° East 442 509 28,700 1,200 Climbing FlightAware ADS-B
Sun 03:02:07 PM 40.3400 30.5280 98° East 441 507 29,600 1,200 Climbing FlightAware ADS-B
Sun 03:02:47 PM 40.3280 30.6320 99° East 442 509 30,300 1,125 Climbing FlightAware ADS-B
Sun 03:03:27 PM 40.3160 30.7440 98° East 441 507 31,100 1,140 Climbing FlightAware ADS-B
Sun 03:04:27 PM 40.2990 30.9040 98° East 442 509 32,200 1,029 Climbing FlightAware ADS-B
Sun 03:05:12 PM 40.2840 31.0230 99° East 440 506 32,900 900 Climbing FlightAware ADS-B
Sun 03:05:47 PM 40.2650 31.1130 105° East 442 509 33,400 675 Climbing FlightAware ADS-B
Sun 03:06:32 PM 40.2420 31.2280 105° East 445 512 33,800 667 Climbing FlightAware ADS-B
Sun 03:07:17 PM 40.2180 31.3460 105° East 447 514 34,400 776 Climbing FlightAware ADS-B
Sun 03:07:57 PM 40.1970 31.4490 105° East 447 514 34,900 424 Climbing FlightAware ADS-B
Sun 03:08:42 PM 40.1720 31.5700 105° East 451 519 35,000 71 Climbing FlightAware ADS-B
Sun 03:09:22 PM 40.1510 31.6740 105° East 448 516 35,000  Level FlightAware ADS-B
Sun 03:09:57 PM 40.1320 31.7640 105° East 449 517 35,000  Level FlightAware ADS-B
Sun 03:10:47 PM 40.1060 31.8910 105° East 451 519 35,000  Level FlightAware ADS-B
Sun 03:11:27 PM 40.0820 32.0020 106° East 453 521 35,000  Level FlightAware ADS-B
Sun 03:12:12 PM 40.0580 32.1170 105° East 453 521 35,000  Level FlightAware ADS-B
Sun 03:12:52 PM 40.0350 32.2240 106° East 452 520 35,000  Level FlightAware ADS-B
Sun 03:13:27 PM 40.0160 32.3170 105° East 451 519 35,000  Level FlightAware ADS-B
Sun 03:14:17 PM 39.9870 32.4490 106° East 451 519 35,000  Level FlightAware ADS-B
Sun 03:14:57 PM 39.9650 32.5520 106° East 452 520 35,000  Level FlightAware ADS-B
Sun 03:16:07 PM 39.9250 32.7360 106° East 453 521 35,000  Level FlightAware ADS-B
Sun 03:16:52 PM 39.9020 32.8420 106° East 454 522 35,000  Level FlightAware ADS-B
Sun 03:17:22 PM 39.8850 32.9200 106° East 453 521 35,000  Level FlightAware ADS-B
Sun 03:18:22 PM 39.8500 33.0780 106° East 451 519 35,000  Level FlightAware ADS-B
Sun 03:19:22 PM 39.8150 33.2350 106° East 450 518 35,000  Level FlightAware ADS-B
Sun 03:20:07 PM 39.7900 33.3500 106° East 450 518 35,000  Level FlightAware ADS-B
Sun 03:20:37 PM 39.7720 33.4280 107° East 448 516 35,000  Level FlightAware ADS-B
Sun 03:21:22 PM 39.7480 33.5370 106° East 449 517 35,000  Level FlightAware ADS-B
Sun 03:22:12 PM 39.7170 33.6740 106° East 450 518 35,000  Level FlightAware ADS-B
Sun 03:22:47 PM 39.6960 33.7640 107° East 451 519 35,000  Level FlightAware ADS-B
Sun 03:23:32 PM 39.6690 33.8830 106° East 453 521 35,000  Level FlightAware ADS-B
Sun 03:24:27 PM 39.6370 34.0220 107° East 452 520 35,000  Level FlightAware ADS-B
Sun 03:25:22 PM 39.6040 34.1640 107° East 452 520 35,000  Level FlightAware ADS-B
Sun 03:26:17 PM 39.5710 34.3050 107° East 451 519 35,000  Level FlightAware ADS-B
Sun 03:27:22 PM 39.5320 34.4760 106° East 449 517 35,000  Level FlightAware ADS-B
Sun 03:28:02 PM 39.5070 34.5800 107° East 449 517 35,000  Level FlightAware ADS-B
Sun 03:28:47 PM 39.4780 34.7010 107° East 450 518 35,000  Level FlightAware ADS-B
Sun 03:29:37 PM 39.4490 34.8240 107° East 450 518 35,000  Level FlightAware ADS-B
Sun 03:30:37 PM 39.4150 34.9660 107° East 451 519 35,000  Level FlightAware ADS-B
Sun 03:31:17 PM 39.3950 35.0530 107° East 451 519 35,000  Level FlightAware ADS-B
Sun 03:31:57 PM 39.3740 35.1410 107° East 451 519 35,000  Level FlightAware ADS-B
Sun 03:32:37 PM 39.3530 35.2290 107° East 451 519 35,000  Level FlightAware ADS-B
Sun 03:33:17 PM 39.3320 35.3170 107° East 451 519 35,000  Level FlightAware ADS-B
Sun 03:34:07 PM 39.3060 35.4260 107° East 451 519 35,000  Level FlightAware ADS-B
Sun 03:34:47 PM 39.2860 35.5140 106° East 451 519 35,000  Level FlightAware ADS-B
Sun 03:35:27 PM 39.2650 35.6020 107° East 451 519 35,000  Level FlightAware ADS-B
Sun 03:36:07 PM 39.2440 35.6890 107° East 451 519 35,000  Level FlightAware ADS-B
Sun 03:36:47 PM 39.2230 35.7770 107° East 451 519 35,000  Level FlightAware ADS-B
Sun 03:37:37 PM 39.1980 35.8860 106° East 451 519 35,000  Level FlightAware ADS-B
Sun 03:38:07 PM 39.1820 35.9520 107° East 451 519 35,000  Level FlightAware ADS-B
Sun 03:38:57 PM 39.1560 36.0610 107° East 451 519 35,000  Level FlightAware ADS-B
Sun 03:39:37 PM 39.1350 36.1490 107° East 451 519 35,000  Level FlightAware ADS-B
Sun 03:42:00 PM 38.9562 36.4007 132° Southeast  Level Estimated
Sun 03:43:00 PM 38.8811 36.5059 133° Southeast  Level Estimated
Sun 03:44:00 PM 38.8058 36.6109 133° Southeast  Level Estimated
Sun 03:45:00 PM 38.7304 36.7157 133° Southeast  Level Estimated
Sun 03:46:00 PM 38.6550 36.8203 133° Southeast  Level Estimated
Sun 03:47:00 PM 38.5794 36.9246 133° Southeast  Level Estimated
Sun 03:48:00 PM 38.5038 37.0288 133° Southeast  Level Estimated
Sun 03:49:00 PM 38.4281 37.1327 133° Southeast  Level Estimated
Sun 03:50:00 PM 38.3523 37.2364 133° Southeast  Level Estimated
Sun 03:51:00 PM 38.2763 37.3398 133° Southeast  Level Estimated
Sun 03:52:00 PM 38.2004 37.4431 133° Southeast  Level Estimated
Sun 03:53:00 PM 38.1243 37.5461 133° Southeast  Level Estimated
Sun 03:54:00 PM 38.0481 37.6489 133° Southeast  Level Estimated
Sun 03:55:00 PM 37.9718 37.7515 133° Southeast  Level Estimated
Sun 03:56:00 PM 37.8955 37.8540 133° Southeast  Level Estimated
Sun 03:57:00 PM 37.8190 37.9561 133° Southeast  Level Estimated
Sun 03:58:00 PM 37.7425 38.0581 133° Southeast  Level Estimated
Sun 03:59:00 PM 37.6658 38.1599 134° Southeast  Level Estimated
Sun 04:00:00 PM 37.5891 38.2614 134° Southeast  Level Estimated
Sun 04:01:00 PM 37.5123 38.3628 134° Southeast  Level Estimated
Sun 04:02:00 PM 37.4354 38.4639 134° Southeast  Level Estimated
Sun 04:03:00 PM 37.3585 38.5648 134° Southeast  Level Estimated
Sun 04:04:00 PM 37.2814 38.6656 134° Southeast  Level Estimated
Sun 04:05:00 PM 37.2043 38.7661 134° Southeast  Level Estimated
Sun 04:06:00 PM 37.1270 38.8664 134° Southeast  Level Estimated
Sun 04:07:00 PM 37.0497 38.9665 134° Southeast  Level Estimated
Sun 04:08:00 PM 36.9723 39.0664 134° Southeast  Level Estimated
Sun 04:09:00 PM 36.8948 39.1661 134° Southeast  Level Estimated
Sun 04:10:00 PM 36.8173 39.2656 134° Southeast  Level Estimated
Sun 04:11:00 PM 36.7396 39.3649 134° Southeast  Level Estimated
Sun 04:11:12 PM 37.9970 41.2930 134° Southeast 463 533 35,000  Level FlightAware ADS-B
Sun 04:11:42 PM 37.9730 41.3680 112° Southeast 462 532 35,000  Level FlightAware ADS-B
Sun 04:12:27 PM 37.9360 41.4790 113° Southeast 461 531 35,000  Level FlightAware ADS-B
Sun 04:13:12 PM 37.9000 41.5910 112° Southeast 459 528 35,000  Level FlightAware ADS-B
Sun 04:13:57 PM 37.8610 41.7080 113° Southeast 456 525 35,000  Level FlightAware ADS-B
Sun 04:14:42 PM 37.8240 41.8200 113° Southeast 455 524 35,000  Level FlightAware ADS-B
Sun 04:15:22 PM 37.7910 41.9190 113° Southeast 455 524 35,000  Level FlightAware ADS-B
Sun 04:16:02 PM 37.7620 42.0080 112° Southeast 455 524 35,000  Level FlightAware ADS-B
Sun 04:16:47 PM 37.7230 42.1230 113° Southeast 457 526 35,000  Level FlightAware ADS-B
Sun 04:17:27 PM 37.6900 42.2210 113° Southeast 458 527 35,000  Level FlightAware ADS-B
Sun 04:18:07 PM 37.6570 42.3190 113° Southeast 459 528 35,000  Level FlightAware ADS-B
Sun 04:18:52 PM 37.6200 42.4280 113° Southeast 461 531 35,000  Level FlightAware ADS-B
Sun 04:19:32 PM 37.5860 42.5300 113° Southeast 461 531 35,000  Level FlightAware ADS-B
Sun 04:20:17 PM 37.5470 42.6440 113° Southeast 461 531 35,000  Level FlightAware ADS-B
Sun 04:20:57 PM 37.5140 42.7420 113° Southeast 461 531 35,000  Level FlightAware ADS-B
Sun 04:21:42 PM 37.4770 42.8500 113° Southeast 461 531 35,000  Level FlightAware ADS-B
Sun 04:22:22 PM 37.4420 42.9490 114° Southeast 463 533 35,000  Level FlightAware ADS-B
Sun 04:23:07 PM 37.3990 43.0610 116° Southeast 460 529 35,000  Level FlightAware ADS-B
Sun 04:23:47 PM 37.3530 43.1420 126° Southeast 457 526 35,000  Level FlightAware ADS-B
Sun 04:24:27 PM 37.2920 43.2200 134° Southeast 456 525 35,000  Level FlightAware ADS-B
Sun 04:25:12 PM 37.2170 43.2880 144° Southeast 451 519 35,000 71 Level FlightAware ADS-B
Sun 04:25:52 PM 37.1420 43.3340 154° Southeast 445 512 35,100 75 Climbing FlightAware ADS-B
Sun 04:26:32 PM 37.0680 43.3760 156° South 442 509 35,100 -71 Level FlightAware ADS-B
Sun 04:27:17 PM 36.9820 43.4230 156° South 436 502 35,000 -67 Descending FlightAware ADS-B
Sun 04:28:02 PM 36.9010 43.4690 156° South 433 498 35,000 -71 Level FlightAware ADS-B
Sun 04:28:42 PM 36.8280 43.5100 156° South 431 496 34,900  Descending FlightAware ADS-B
Sun 04:29:12 PM 36.7750 43.5400 156° South 431 496 35,000 86 Climbing FlightAware ADS-B
Sun 04:29:52 PM 36.7000 43.5810 156° South 431 496 35,000  Level FlightAware ADS-B
Sun 04:30:32 PM 36.6260 43.6190 158° South 431 496 35,000  Level FlightAware ADS-B
Sun 04:31:17 PM 36.5430 43.6610 158° South 433 498 35,000  Level FlightAware ADS-B
Sun 04:31:57 PM 36.4700 43.7000 157° South 437 503 35,000  Level FlightAware ADS-B
Sun 04:32:42 PM 36.3830 43.7450 157° South 440 506 35,000 71 Level FlightAware ADS-B
Sun 04:33:22 PM 36.3120 43.7820 157° South 439 505 35,100 71 Climbing FlightAware ADS-B
Sun 04:34:07 PM 36.2270 43.8260 157° South 437 503 35,100 -71 Level FlightAware ADS-B
Sun 04:34:47 PM 36.1500 43.8660 157° South 435 501 35,000 -75 Descending FlightAware ADS-B
Sun 04:35:27 PM 36.0780 43.9040 157° South 433 498 35,000  Level FlightAware ADS-B
Sun 04:36:12 PM 35.9930 43.9490 157° South 434 499 35,000  Level FlightAware ADS-B
Sun 04:36:52 PM 35.9210 43.9860 157° South 435 501 35,000  Level FlightAware ADS-B
Sun 04:37:32 PM 35.8430 44.0270 157° South 436 502 35,000  Level FlightAware ADS-B
Sun 04:38:17 PM 35.7620 44.0690 157° South 436 502 35,000  Level FlightAware ADS-B
Sun 04:38:57 PM 35.6880 44.1070 157° South 436 502 35,000  Level FlightAware ADS-B
Sun 04:39:42 PM 35.6030 44.1520 157° South 436 502 35,000  Level FlightAware ADS-B
Sun 04:40:22 PM 35.5260 44.1910 158° South 435 501 35,000  Level FlightAware ADS-B
Sun 04:41:07 PM 35.4440 44.2340 157° South 435 501 35,000  Level FlightAware ADS-B
Sun 04:41:47 PM 35.3720 44.2710 157° South 432 497 35,000  Level FlightAware ADS-B
Sun 04:42:27 PM 35.2990 44.3080 158° South 428 493 35,000  Level FlightAware ADS-B
Sun 04:43:12 PM 35.2160 44.3490 158° South 424 488 35,000  Level FlightAware ADS-B
Sun 04:43:52 PM 35.1420 44.3820 160° South 424 488 35,000  Level FlightAware ADS-B
Sun 04:44:37 PM 35.0590 44.4200 159° South 423 487 35,000  Level FlightAware ADS-B
Sun 04:45:17 PM 34.9880 44.4520 160° South 422 486 35,000  Level FlightAware ADS-B
Sun 04:45:57 PM 34.9130 44.4870 159° South 421 484 35,000  Level FlightAware ADS-B
Sun 04:46:42 PM 34.8330 44.5240 159° South 416 479 35,000  Level FlightAware ADS-B
Sun 04:47:22 PM 34.7580 44.5580 160° South 418 481 35,000  Level FlightAware ADS-B
Sun 04:48:07 PM 34.6790 44.5940 159° South 420 483 35,000  Level FlightAware ADS-B
Sun 04:48:47 PM 34.6030 44.6280 160° South 423 487 35,000  Level FlightAware ADS-B
Sun 04:49:27 PM 34.5320 44.6610 159° South 423 487 35,000  Level FlightAware ADS-B
Sun 04:50:12 PM 34.4470 44.7000 159° South 422 486 35,000  Level FlightAware ADS-B
Sun 04:50:52 PM 34.3770 44.7360 157° South 421 484 35,000  Level FlightAware ADS-B
Sun 04:51:32 PM 34.3030 44.7720 158° South 415 478 35,000  Level FlightAware ADS-B
Sun 04:52:17 PM 34.2250 44.8100 158° South 410 472 35,000  Level FlightAware ADS-B
Sun 04:52:57 PM 34.1560 44.8440 158° South 408 470 35,000  Level FlightAware ADS-B
Sun 04:53:42 PM 34.0760 44.8830 158° South 403 464 35,000  Level FlightAware ADS-B
Sun 04:54:22 PM 34.0110 44.9160 157° South 402 463 35,000  Level FlightAware ADS-B
Sun 04:55:02 PM 33.9390 44.9500 159° South 402 463 35,000  Level FlightAware ADS-B
Sun 04:55:47 PM 33.8610 44.9880 158° South 401 461 35,000  Level FlightAware ADS-B
Sun 04:56:27 PM 33.7940 45.0210 158° South 402 463 35,000  Level FlightAware ADS-B
Sun 04:57:07 PM 33.7240 45.0540 159° South 401 461 35,000  Level FlightAware ADS-B
Sun 04:57:52 PM 33.6460 45.0910 158° South 401 461 35,000  Level FlightAware ADS-B
Sun 04:58:32 PM 33.5760 45.1230 159° South 402 463 35,000  Level FlightAware ADS-B
Sun 04:59:17 PM 33.4970 45.1590 159° South 403 464 35,000  Level FlightAware ADS-B
Sun 04:59:57 PM 33.4260 45.1920 159° South 405 466 35,000  Level FlightAware ADS-B
Sun 05:00:37 PM 33.3580 45.2230 159° South 404 465 35,000  Level FlightAware ADS-B
Sun 05:01:22 PM 33.2790 45.2590 159° South 406 467 35,000  Level FlightAware ADS-B
Sun 05:02:07 PM 33.2010 45.2990 157° South 409 471 35,000  Level FlightAware ADS-B
Sun 05:02:42 PM 33.1430 45.3280 157° South 408 470 35,000  Level FlightAware ADS-B
Sun 05:03:22 PM 33.0690 45.3640 158° South 409 471 35,000  Level FlightAware ADS-B
Sun 05:04:12 PM 32.9820 45.4080 157° South 410 472 35,000  Level FlightAware ADS-B
Sun 05:04:52 PM 32.9130 45.4410 158° South 412 474 35,000  Level FlightAware ADS-B
Sun 05:05:37 PM 32.8330 45.4800 158° South 413 475 35,000  Level FlightAware ADS-B
Sun 05:06:17 PM 32.7610 45.5140 158° South 416 479 35,000  Level FlightAware ADS-B
Sun 05:07:07 PM 32.6740 45.5550 158° South 419 482 35,000  Level FlightAware ADS-B
Sun 05:07:57 PM 32.5980 45.5920 158° South 419 482 35,000  Level FlightAware ADS-B
Sun 05:08:37 PM 32.5360 45.6210 158° South 419 482 35,000  Level FlightAware ADS-B
Sun 05:09:17 PM 32.4750 45.6510 157° South 419 482 35,000  Level FlightAware ADS-B
Sun 05:09:57 PM 32.4140 45.6800 158° South 419 482 35,000  Level FlightAware ADS-B
Sun 05:10:42 PM 32.3320 45.9020 114° Southeast 449 517 35,000  Level FlightAware ADS-B
Sun 05:11:17 PM 32.2810 45.9570 138° Southeast 447 514 35,000  Level FlightAware ADS-B
Sun 05:12:02 PM 32.2210 46.0240 137° Southeast 447 514 35,000  Level FlightAware ADS-B
Sun 05:12:52 PM 32.1570 46.0950 137° Southeast 447 514 35,000  Level FlightAware ADS-B
Sun 05:13:32 PM 32.1050 46.1510 138° Southeast 447 514 35,000  Level FlightAware ADS-B
Sun 05:14:12 PM 32.0540 46.2080 137° Southeast 447 514 35,000  Level FlightAware ADS-B
Sun 05:14:52 PM 32.0020 46.2640 138° Southeast 447 514 35,000  Level FlightAware ADS-B
Sun 05:15:32 PM 31.9510 46.3210 137° Southeast 447 514 35,000  Level FlightAware ADS-B
Sun 05:16:22 PM 31.8870 46.3920 137° Southeast 447 514 35,000  Level FlightAware ADS-B
Sun 05:17:02 PM 31.8350 46.4480 138° Southeast 447 514 35,000  Level FlightAware ADS-B
Sun 05:17:42 PM 31.7840 46.5040 137° Southeast 447 514 35,000  Level FlightAware ADS-B
Sun 05:18:22 PM 31.7320 46.5610 137° Southeast 447 514 35,000  Level FlightAware ADS-B
Sun 05:19:02 PM 31.6810 46.6170 137° Southeast 447 514 35,000  Level FlightAware ADS-B
Sun 05:19:52 PM 31.6170 46.6880 137° Southeast 447 514 35,000  Level FlightAware ADS-B
Sun 05:20:32 PM 31.5650 46.7440 137° Southeast 447 514 35,000  Level FlightAware ADS-B
Sun 05:21:12 PM 31.5140 46.8000 137° Southeast 447 514 35,000  Level FlightAware ADS-B
Sun 05:23:00 PM 31.3500 46.9344 145° Southeast  Level Estimated
Sun 05:23:32 PM 31.1580 47.1640 145° Southeast 35,000  Level FlightAware ADS-B
Sun 05:24:57 PM 31.0210 47.3080 138° Southeast 466 536 35,000  Level FlightAware ADS-B
Sun 05:25:42 PM 30.9530 47.3820 137° Southeast 465 535 35,000  Level FlightAware ADS-B
Sun 05:26:17 PM 30.8880 47.4490 138° Southeast 463 533 35,000  Level FlightAware ADS-B
Sun 05:27:02 PM 30.8270 47.5130 138° Southeast 461 531 35,000  Level FlightAware ADS-B
Sun 05:27:57 PM 30.7360 47.6080 138° Southeast 461 531 35,000  Level FlightAware ADS-B
Sun 05:28:37 PM 30.7010 47.6450 138° Southeast 462 532 35,000  Level FlightAware ADS-B
Sun 05:29:27 PM 30.6240 47.7240 139° Southeast 466 536 35,000  Level FlightAware ADS-B
Sun 05:30:22 PM 30.5260 47.8260 138° Southeast 469 540 35,000  Level FlightAware ADS-B
Sun 05:30:52 PM 30.4870 47.8660 139° Southeast 468 539 35,000  Level FlightAware ADS-B
Sun 05:31:52 PM 30.3910 47.9660 138° Southeast 469 540 35,000  Level FlightAware ADS-B
Sun 05:32:32 PM 30.3280 48.0310 138° Southeast 473 544 35,000  Level FlightAware ADS-B
Sun 05:33:22 PM 30.2310 48.1300 139° Southeast 469 540 35,000  Level FlightAware ADS-B
Sun 05:33:57 PM 30.1770 48.1860 138° Southeast 468 539 35,000  Level FlightAware ADS-B
Sun 05:34:47 PM 30.1050 48.2610 138° Southeast 466 536 35,000  Level FlightAware ADS-B
Sun 05:35:27 PM 30.0340 48.3330 139° Southeast 468 539 35,000  Level FlightAware ADS-B
Sun 05:36:12 PM 29.9570 48.4120 138° Southeast 469 540 35,000  Level FlightAware ADS-B
Sun 05:36:42 PM 29.9030 48.4650 140° Southeast 457 526 35,000  Level FlightAware ADS-B
Sun 05:37:32 PM 29.8110 48.5330 147° Southeast 444 511 35,000  Level FlightAware ADS-B
Sun 05:38:17 PM 29.7370 48.5760 153° Southeast 442 509 35,000  Level FlightAware ADS-B
Sun 05:38:52 PM 29.6740 48.6140 152° Southeast 441 507 35,000  Level FlightAware ADS-B
Sun 05:39:42 PM 29.5790 48.6690 153° Southeast 441 507 35,000  Level FlightAware ADS-B
Sun 05:40:22 PM 29.5130 48.7080 153° Southeast 442 509 35,000  Level FlightAware ADS-B
Sun 05:41:07 PM 29.4260 48.7590 153° Southeast 445 512 35,000  Level FlightAware ADS-B
Sun 05:41:47 PM 29.3560 48.8000 153° Southeast 446 513 35,000  Level FlightAware ADS-B
Sun 05:42:27 PM 29.2760 48.8470 153° Southeast 445 512 35,000 60 Level FlightAware ADS-B
Sun 05:43:27 PM 29.1810 48.9040 152° Southeast 445 512 35,100  Climbing FlightAware ADS-B
Sun 05:44:02 PM 29.1100 48.9440 154° Southeast 442 509 35,000 -67 Descending FlightAware ADS-B
Sun 05:44:57 PM 29.0190 48.9960 153° Southeast 440 506 35,000  Level FlightAware ADS-B
Sun 05:45:42 PM 28.9380 49.0430 153° Southeast 440 506 35,000  Level FlightAware ADS-B
Sun 05:46:27 PM 28.8420 49.0980 153° Southeast 439 505 35,000  Level FlightAware ADS-B
Sun 05:47:02 PM 28.7830 49.1320 153° Southeast 440 506 35,000  Level FlightAware ADS-B
Sun 05:47:52 PM 28.6900 49.1860 153° Southeast 440 506 35,000  Level FlightAware ADS-B
Sun 05:48:32 PM 28.6190 49.2270 153° Southeast 443 510 35,000  Level FlightAware ADS-B
Sun 05:49:27 PM 28.5200 49.2830 154° Southeast 446 513 35,000  Level FlightAware ADS-B
Sun 05:50:12 PM 28.4390 49.3300 153° Southeast 447 514 35,000 71 Level FlightAware ADS-B
Sun 05:50:52 PM 28.3700 49.3700 153° Southeast 447 514 35,100 75 Climbing FlightAware ADS-B
Sun 05:51:32 PM 28.3080 49.4060 153° Southeast 447 514 35,100 -80 Level FlightAware ADS-B
Sun 05:52:07 PM 28.2260 49.4510 154° Southeast 443 510 35,000 -71 Descending FlightAware ADS-B
Sun 05:52:57 PM 28.1380 49.5020 153° Southeast 443 510 35,000  Level FlightAware ADS-B
Sun 05:53:32 PM 28.0690 49.5480 150° Southeast 454 522 35,000  Level FlightAware ADS-B
Sun 05:54:22 PM 28.0020 49.6030 144° Southeast 455 524 35,000  Level FlightAware ADS-B
Sun 05:55:02 PM 27.9190 49.6710 144° Southeast 453 521 35,000  Level FlightAware ADS-B
Sun 05:55:47 PM 27.8470 49.7300 144° Southeast 449 517 35,000  Level FlightAware ADS-B
Sun 05:56:22 PM 27.7920 49.7740 145° Southeast 449 517 35,000  Level FlightAware ADS-B
Sun 05:57:07 PM 27.7390 49.8180 144° Southeast 445 512 35,000  Level FlightAware ADS-B
Sun 05:57:47 PM 27.6820 49.8640 144° Southeast 445 512 35,000  Level FlightAware ADS-B
Sun 05:58:37 PM 27.6110 49.9220 144° Southeast 445 512 35,000  Level FlightAware ADS-B
Sun 05:59:07 PM 27.5690 49.9570 144° Southeast 445 512 35,000  Level FlightAware ADS-B
Sun 05:59:57 PM 27.4980 50.0150 144° Southeast 445 512 35,000  Level FlightAware ADS-B
Sun 06:00:37 PM 27.4420 50.0610 144° Southeast 445 512 35,000  Level FlightAware ADS-B
Sun 06:01:17 PM 27.3850 50.1080 144° Southeast 445 512 35,000  Level FlightAware ADS-B
Sun 06:02:07 PM 27.3140 50.1660 144° Southeast 445 512 35,000  Level FlightAware ADS-B
Sun 06:02:47 PM 27.2580 50.2120 144° Southeast 445 512 35,000 -375 Level FlightAware ADS-B
Sun 06:05:00 PM 27.0480 50.3569 148° Southeast  Level Estimated
Sun 06:06:00 PM 26.9533 50.4221 148° Southeast  Level Estimated
Sun 06:06:47 PM 26.6830 50.6140 148° Southeast 33,000  Level FlightAware ADS-B
Sun 06:07:27 PM 26.6120 50.6600 150° Southeast 433 498 33,000  Level FlightAware ADS-B
Sun 06:08:02 PM 26.5530 50.7120 142° Southeast 463 533 33,000 -71 Level FlightAware ADS-B
Sun 06:08:52 PM 26.4970 50.8050 124° Southeast 470 541 32,900 -494 Descending FlightAware ADS-B
Sun 06:09:27 PM 26.4530 50.8800 123° Southeast 468 539 32,300 -706 Descending FlightAware ADS-B
Sun 06:10:17 PM 26.3980 50.9730 123° Southeast 474 545 31,900 -1,133 Descending FlightAware ADS-B
Sun 06:10:57 PM 26.3410 51.0660 124° Southeast 484 557 30,600 -2,100 Descending FlightAware ADS-B
Sun 06:11:37 PM 26.2910 51.1500 124° Southeast 479 551 29,100 -2,400 Descending FlightAware ADS-B
Sun 06:12:22 PM 26.2340 51.2430 124° Southeast 467 537 27,200 -2,571 Descending FlightAware ADS-B
Sun 06:12:47 PM 26.1930 51.2830 139° Southeast 448 516 26,100 -2,657 Descending FlightAware ADS-B
Sun 06:13:32 PM 26.1160 51.3390 147° Southeast 449 517 24,100 -2,329 Descending FlightAware ADS-B
Sun 06:14:12 PM 26.0530 51.3880 145° Southeast 432 497 22,800 -2,047 Descending FlightAware ADS-B
Sun 06:14:57 PM 25.9760 51.4470 145° Southeast 419 482 21,200 -2,188 Descending FlightAware ADS-B
Sun 06:15:37 PM 25.9100 51.4970 146° Southeast 414 476 19,700 -2,100 Descending FlightAware ADS-B
Sun 06:16:17 PM 25.8470 51.5450 146° Southeast 405 466 18,400 -2,047 Descending FlightAware ADS-B
Sun 06:17:02 PM 25.7770 51.5980 146° Southeast 391 450 16,800 -1,835 Descending FlightAware ADS-B
Sun 06:17:42 PM 25.7180 51.6420 146° Southeast 375 432 15,800 -1,543 Descending FlightAware ADS-B
Sun 06:18:12 PM 25.6710 51.6610 160° South 354 407 15,000 -1,108 Descending FlightAware ADS-B
Sun 06:18:47 PM 25.6110 51.6690 173° South 326 375 14,600 -1,050 Descending FlightAware ADS-B
Sun 06:19:32 PM 25.5450 51.6770 174° South 322 371 13,600 -1,867 Descending FlightAware ADS-B
Sun 06:20:17 PM 25.4790 51.6840 175° South 310 357 11,800 -2,471 Descending FlightAware ADS-B
Sun 06:20:57 PM 25.4220 51.6910 174° South 306 352 10,100 -2,486 Descending FlightAware ADS-B
Sun 06:21:27 PM 25.3800 51.6950 175° South 293 337 8,900 -2,200 Descending FlightAware ADS-B
Sun 06:21:57 PM 25.3390 51.6980 176° South 291 335 7,900 -2,182 Descending FlightAware ADS-B
Sun 06:22:22 PM 25.3050 51.7010 175° South 277 319 6,900 -2,291 Descending FlightAware ADS-B
Sun 06:22:52 PM 25.2650 51.7040 176° South 277 319 5,800 -1,636 Descending FlightAware ADS-B
Sun 06:23:17 PM 25.2370 51.7060 176° South 262 302 5,400 -1,418 Descending FlightAware ADS-B
Sun 06:23:47 PM 25.1990 51.7090 176° South 246 283 4,500 -1,920 Descending FlightAware ADS-B
Sun 06:24:07 PM 25.1760 51.7100 178° South 246 283 3,800 -1,000 Descending FlightAware ADS-B
Sun 06:24:47 PM 25.1390 51.7120 177° South 245 282 3,500 -847 Descending FlightAware ADS-B
Sun 06:25:32 PM 25.0950 51.6910 203° Southwest 206 237 2,600 -960 Descending FlightAware ADS-B
Sun 06:26:02 PM 25.1030 51.6620 287° West 188 216 2,300 -400 Descending FlightAware ADS-B
Sun 06:26:32 PM 25.1160 51.6390 302° West 178 205 2,200 -109 Descending FlightAware ADS-B
Sun 06:26:57 PM 25.1310 51.6230 316° Northwest 177 204 2,200 -133 Level FlightAware ADS-B
Sun 06:27:17 PM 25.1450 51.6160 336° Northwest 177 204 2,100 -514 Descending FlightAware ADS-B
Sun 06:27:32 PM 25.1570 51.6110 339° North 174 200 1,900 -300 Descending FlightAware ADS-B
Sun 06:27:57 PM 25.1730 51.6030 336° Northwest 174 200 1,900 -764 Level FlightAware ADS-B
Sun 06:28:27 PM 25.1940 51.5950 341° North 142 163 1,200 -764 Descending FlightAware ADS-B
Sun 06:28:52 PM 25.2070 51.5890 337° Northwest 142 163 1,200  Level FlightAware ADS-B
Sun 06:31:00 PM 25.2611 51.5651 338° Northwest  Level Estimated
Sun 06:32:00 PM 25.2611 51.5651 324° Northwest  Level Estimated
Sun 06:33:00 PM 25.2611 51.5651 324° Northwest  Level Estimated
Sun 06:34:00 PM 25.2611 51.5651 324° Northwest  Level Estimated
Sun 06:35:00 PM 25.2611 51.5651 324° Northwest  Level Estimated
Sun 06:36:00 PM 25.2611 51.5651 324° Northwest  Level Estimated
Sun 06:37:00 PM 25.2611 51.5651 324° Northwest  Level Estimated
Sun 06:38:00 PM 25.2611 51.5651 324° Northwest  Level Estimated
Sun 06:39:00 PM 25.2611 51.5651 324° Northwest  Level Estimated
Sun 06:40:00 PM 25.2611 51.5651 324° Northwest  Level Estimated
Sun 06:41:00 PM 25.2611 51.5651 324° Northwest  Level Estimated

Login

Don't have an account? Register now (free) for customized features, flight alerts, and more!